Elisalex Schulte — 9V9154 — position and weather

sailwx.info

Track history (hours):
 
Tides and Currents Weather Stations Pressure Air Temp Water Temp Dewpoint Dewpoint Depression Visibility Wind Speed Wind Dir Waves Ship Positions

Elisalex Schulte

Last reported at 2016-Aug-26 04:23 UTC. Time now 2016-Aug-26 06:44 UTC.
Position N 53°19' W 002°57'.

Length 144 m; draft 8.1 m.

Type: Tanker. MMSI: 563052000.

Date/timePositionNaut miles runAvg speedWind from/ knotsBaromVisibWave heightAir tempDewpointWater temp
2016-Aug-26 04:23N 53°19' W 002°57'0 0.0
2016-Aug-26 03:32N 53°19' W 002°57'0 0.0
2016-Aug-26 02:32N 53°19' W 002°57'0 0.0
2016-Aug-26 01:32N 53°19' W 002°57'0 0.0
2016-Aug-26 00:32N 53°19' W 002°57'0 0.0
2016-Aug-25 23:29N 53°19' W 002°57'0 0.0
2016-Aug-25 22:29N 53°19' W 002°57'0 0.0
2016-Aug-25 21:26N 53°19' W 002°57'0 0.0
2016-Aug-25 20:29N 53°19' W 002°57'0 0.0
2016-Aug-25 19:29N 53°19' W 002°57'0 0.0
2016-Aug-25 18:29N 53°19' W 002°57'0 0.0
2016-Aug-25 17:26N 53°19' W 002°57'0 0.0
2016-Aug-25 16:32N 53°19' W 002°57'0 0.0
2016-Aug-25 15:32N 53°19' W 002°57'0 0.0
2016-Aug-25 14:17N 53°19' W 002°57'0 0.0
2016-Aug-25 13:26N 53°19' W 002°57'0 0.0
2016-Aug-25 12:32N 53°19' W 002°57'0 0.0
2016-Aug-25 11:32N 53°19' W 002°57'0 0.0
2016-Aug-25 10:32N 53°19' W 002°57'0 0.0
2016-Aug-25 09:29N 53°19' W 002°57'0 0.0
2016-Aug-25 08:20N 53°19' W 002°57'0 0.0
2016-Aug-25 07:32N 53°19' W 002°57'0 0.0
2016-Aug-25 06:32N 53°19' W 002°57'0 0.0
2016-Aug-25 04:32N 53°19' W 002°57'0 0.0
2016-Aug-25 03:20N 53°19' W 002°57'0 0.0
2016-Aug-25 02:29N 53°19' W 002°57'0 0.0
2016-Aug-25 01:29N 53°19' W 002°57'0 0.0
2016-Aug-25 00:23N 53°19' W 002°57'0 0.0
2016-Aug-24 23:32N 53°19' W 002°57'0 0.0
2016-Aug-24 22:26N 53°19' W 002°57'0 0.0
2016-Aug-24 21:32N 53°19' W 002°57'0 0.0
2016-Aug-24 20:29N 53°19' W 002°57'0 0.0
2016-Aug-24 19:29N 53°19' W 002°57'0 0.0
2016-Aug-24 18:32N 53°19' W 002°57'0 0.0
2016-Aug-24 17:32N 53°19' W 002°57'0 0.0
2016-Aug-24 16:32N 53°19' W 002°57'0 0.0
2016-Aug-24 15:26N 53°19' W 002°57'0 0.0
2016-Aug-24 14:23N 53°19' W 002°57'0 0.0
2016-Aug-24 13:29N 53°19' W 002°57'0 0.0
2016-Aug-24 12:23N 53°19' W 002°57'0 0.0
2016-Aug-24 11:20N 53°19' W 002°57'0 0.0
2016-Aug-24 10:32N 53°19' W 002°57'0 0.0
2016-Aug-24 09:29N 53°19' W 002°57'0 0.0
2016-Aug-24 08:26N 53°19' W 002°57'0 0.0
2016-Aug-24 07:20N 53°19' W 002°57'0 0.0
2016-Aug-24 06:23N 53°19' W 002°57'0 0.0
2016-Aug-24 04:32N 53°19' W 002°57'0 0.0
2016-Aug-24 03:29N 53°19' W 002°57'0 0.0
2016-Aug-24 02:32N 53°19' W 002°57'0 0.0
2016-Aug-24 01:32N 53°19' W 002°57'0 0.0
2016-Aug-24 00:32N 53°19' W 002°57'0 0.0
2016-Aug-23 23:32N 53°19' W 002°57'0 0.0
2016-Aug-23 22:32N 53°19' W 002°57'0 0.0
2016-Aug-23 21:32N 53°19' W 002°57'0 0.0
2016-Aug-23 20:29N 53°19' W 002°57'0 0.0
2016-Aug-23 19:26N 53°19' W 002°57'0 0.0
2016-Aug-23 18:32N 53°19' W 002°57'0 0.0
2016-Aug-23 17:23N 53°19' W 002°57'0 0.0
2016-Aug-23 16:29N 53°19' W 002°57'0 0.2
2016-Aug-23 15:33N 53°19' W 002°57'1 0.7
2016-Aug-23 14:33N 53°20' W 002°57'8 8.6
2016-Aug-23 13:33N 53°28' W 003°03'8 7.8
2016-Aug-23 12:33N 53°31' W 003°15'6 6.3
2016-Aug-23 11:33N 53°31' W 003°26'3 3.2
2016-Aug-23 10:33N 53°31' W 003°31'10 9.7
2016-Aug-23 09:33N 53°31' W 003°48'1412.1
2016-Aug-23 08:26N 53°37' W 004°08'4410.3
2016-Aug-23 04:12N 54°07' W 005°03'811.9
2016-Aug-23 03:29N 54°15' W 005°06'1111.9
2016-Aug-23 02:33N 54°26' W 005°09'1212.1
2016-Aug-23 01:33N 54°37' W 005°17'1413.9
2016-Aug-23 00:33N 54°49' W 005°27'1514.5
2016-Aug-22 23:33N 55°02' W 005°41'1515.3
2016-Aug-22 22:33N 55°14' W 005°57'1414.3
2016-Aug-22 21:33N 55°22' W 006°18'1313.2
2016-Aug-22 20:33N 55°28' W 006°39'1111.5
2016-Aug-22 19:34N 55°35' W 006°54'1110.7
2016-Aug-22 18:33N 55°45' W 007°03'228 9.5
2016-Aug-21 18:33N 59°14' W 004°19'1612.7
2016-Aug-21 17:17N 59°23' W 003°52'46611.1
2016-Aug-19 23:10N 58°12' E 010°57'711.8
2016-Aug-19 22:33N 58°14' E 011°10'9 8.8
2016-Aug-19 21:33N 58°20' E 011°23'2 0.1
2016-Aug-18 21:12N 58°21' E 011°26'3 5.4
2016-Aug-18 20:34N 58°19' E 011°21'8 7.8
2016-Aug-18 19:31N 58°13' E 011°11'2 0.2
2016-Aug-18 03:09N 58°10' E 011°12'3 3.6
2016-Aug-18 02:17N 58°09' E 011°06'7312.2
2016-Aug-17 20:18N 57°42' E 008°58'1013.3
2016-Aug-17 19:32N 57°38' E 008°40'1413.1
2016-Aug-17 18:29N 57°33' E 008°17'1212.8
2016-Aug-17 17:33N 57°29' E 007°56'1412.4
2016-Aug-17 16:24N 57°23' E 007°32'1112.8
2016-Aug-17 15:33N 57°18' E 007°14'1313.1
2016-Aug-17 14:34N 57°14' E 006°51'1313.0
2016-Aug-17 13:34N 57°10' E 006°28'1312.8
2016-Aug-17 12:33N 57°05' E 006°06'1212.5
2016-Aug-17 11:34N 57°01' E 005°45'1312.6
2016-Aug-17 10:34N 56°56' E 005°23'1312.9
2016-Aug-17 09:33N 56°52' E 005°01'1313.0
2016-Aug-17 08:33N 56°47' E 004°39'15412.6
2016-Aug-16 20:21N 56°14' E 000°07'1012.7
2016-Aug-16 19:33N 56°13' W 000°12'1312.9
2016-Aug-16 18:33N 56°12' W 000°35'1312.8
2016-Aug-16 17:31N 56°11' W 000°59'1212.8
2016-Aug-16 16:33N 56°11' W 001°20'1312.6
2016-Aug-16 15:33N 56°09' W 001°43'1312.6
2016-Aug-16 14:33N 56°08' W 002°06'1212.5
2016-Aug-16 13:34N 56°08' W 002°28'1212.4
2016-Aug-16 12:33N 56°06' W 002°50'1111.4
2016-Aug-16 11:34N 56°03' W 003°09'  
Track history (hours):
 
Tides and Currents Weather Stations Pressure Air Temp Water Temp Dewpoint Dewpoint Depression Visibility Wind Speed Wind Dir Waves Ship Positions

Elisalex Schulte

Last reported at 2016-Aug-26 04:23 UTC. Time now 2016-Aug-26 06:44 UTC.
Position N 53°19' W 002°57'.

Length 144 m; draft 8.1 m.

Type: Tanker. MMSI: 563052000.

Date/timePositionNaut miles runAvg speedWind from/ knotsBaromVisibWave heightAir tempDewpointWater temp
2016-Aug-26 04:23N 53°19' W 002°57'0 0.0
2016-Aug-26 03:32N 53°19' W 002°57'0 0.0
2016-Aug-26 02:32N 53°19' W 002°57'0 0.0
2016-Aug-26 01:32N 53°19' W 002°57'0 0.0
2016-Aug-26 00:32N 53°19' W 002°57'0 0.0
2016-Aug-25 23:29N 53°19' W 002°57'0 0.0
2016-Aug-25 22:29N 53°19' W 002°57'0 0.0
2016-Aug-25 21:26N 53°19' W 002°57'0 0.0
2016-Aug-25 20:29N 53°19' W 002°57'0 0.0
2016-Aug-25 19:29N 53°19' W 002°57'0 0.0
2016-Aug-25 18:29N 53°19' W 002°57'0 0.0
2016-Aug-25 17:26N 53°19' W 002°57'0 0.0
2016-Aug-25 16:32N 53°19' W 002°57'0 0.0
2016-Aug-25 15:32N 53°19' W 002°57'0 0.0
2016-Aug-25 14:17N 53°19' W 002°57'0 0.0
2016-Aug-25 13:26N 53°19' W 002°57'0 0.0
2016-Aug-25 12:32N 53°19' W 002°57'0 0.0
2016-Aug-25 11:32N 53°19' W 002°57'0 0.0
2016-Aug-25 10:32N 53°19' W 002°57'0 0.0
2016-Aug-25 09:29N 53°19' W 002°57'0 0.0
2016-Aug-25 08:20N 53°19' W 002°57'0 0.0
2016-Aug-25 07:32N 53°19' W 002°57'0 0.0
2016-Aug-25 06:32N 53°19' W 002°57'0 0.0
2016-Aug-25 04:32N 53°19' W 002°57'0 0.0
2016-Aug-25 03:20N 53°19' W 002°57'0 0.0
2016-Aug-25 02:29N 53°19' W 002°57'0 0.0
2016-Aug-25 01:29N 53°19' W 002°57'0 0.0
2016-Aug-25 00:23N 53°19' W 002°57'0 0.0
2016-Aug-24 23:32N 53°19' W 002°57'0 0.0
2016-Aug-24 22:26N 53°19' W 002°57'0 0.0
2016-Aug-24 21:32N 53°19' W 002°57'0 0.0
2016-Aug-24 20:29N 53°19' W 002°57'0 0.0
2016-Aug-24 19:29N 53°19' W 002°57'0 0.0
2016-Aug-24 18:32N 53°19' W 002°57'0 0.0
2016-Aug-24 17:32N 53°19' W 002°57'0 0.0
2016-Aug-24 16:32N 53°19' W 002°57'0 0.0
2016-Aug-24 15:26N 53°19' W 002°57'0 0.0
2016-Aug-24 14:23N 53°19' W 002°57'0 0.0
2016-Aug-24 13:29N 53°19' W 002°57'0 0.0
2016-Aug-24 12:23N 53°19' W 002°57'0 0.0
2016-Aug-24 11:20N 53°19' W 002°57'0 0.0
2016-Aug-24 10:32N 53°19' W 002°57'0 0.0
2016-Aug-24 09:29N 53°19' W 002°57'0 0.0
2016-Aug-24 08:26N 53°19' W 002°57'0 0.0
2016-Aug-24 07:20N 53°19' W 002°57'0 0.0
2016-Aug-24 06:23N 53°19' W 002°57'0 0.0
2016-Aug-24 04:32N 53°19' W 002°57'0 0.0
2016-Aug-24 03:29N 53°19' W 002°57'0 0.0
2016-Aug-24 02:32N 53°19' W 002°57'0 0.0
2016-Aug-24 01:32N 53°19' W 002°57'0 0.0
2016-Aug-24 00:32N 53°19' W 002°57'0 0.0
2016-Aug-23 23:32N 53°19' W 002°57'0 0.0
2016-Aug-23 22:32N 53°19' W 002°57'0 0.0
2016-Aug-23 21:32N 53°19' W 002°57'0 0.0
2016-Aug-23 20:29N 53°19' W 002°57'0 0.0
2016-Aug-23 19:26N 53°19' W 002°57'0 0.0
2016-Aug-23 18:32N 53°19' W 002°57'0 0.0
2016-Aug-23 17:23N 53°19' W 002°57'0 0.0
2016-Aug-23 16:29N 53°19' W 002°57'0 0.2
2016-Aug-23 15:33N 53°19' W 002°57'1 0.7
2016-Aug-23 14:33N 53°20' W 002°57'8 8.6
2016-Aug-23 13:33N 53°28' W 003°03'8 7.8
2016-Aug-23 12:33N 53°31' W 003°15'6 6.3
2016-Aug-23 11:33N 53°31' W 003°26'3 3.2
2016-Aug-23 10:33N 53°31' W 003°31'10 9.7
2016-Aug-23 09:33N 53°31' W 003°48'1412.1
2016-Aug-23 08:26N 53°37' W 004°08'4410.3
2016-Aug-23 04:12N 54°07' W 005°03'811.9
2016-Aug-23 03:29N 54°15' W 005°06'1111.9
2016-Aug-23 02:33N 54°26' W 005°09'1212.1
2016-Aug-23 01:33N 54°37' W 005°17'1413.9
2016-Aug-23 00:33N 54°49' W 005°27'1514.5
2016-Aug-22 23:33N 55°02' W 005°41'1515.3
2016-Aug-22 22:33N 55°14' W 005°57'1414.3
2016-Aug-22 21:33N 55°22' W 006°18'1313.2
2016-Aug-22 20:33N 55°28' W 006°39'1111.5
2016-Aug-22 19:34N 55°35' W 006°54'1110.7
2016-Aug-22 18:33N 55°45' W 007°03'228 9.5
2016-Aug-21 18:33N 59°14' W 004°19'1612.7
2016-Aug-21 17:17N 59°23' W 003°52'46611.1
2016-Aug-19 23:10N 58°12' E 010°57'711.8
2016-Aug-19 22:33N 58°14' E 011°10'9 8.8
2016-Aug-19 21:33N 58°20' E 011°23'2 0.1
2016-Aug-18 21:12N 58°21' E 011°26'3 5.4
2016-Aug-18 20:34N 58°19' E 011°21'8 7.8
2016-Aug-18 19:31N 58°13' E 011°11'2 0.2
2016-Aug-18 03:09N 58°10' E 011°12'3 3.6
2016-Aug-18 02:17N 58°09' E 011°06'7312.2
2016-Aug-17 20:18N 57°42' E 008°58'1013.3
2016-Aug-17 19:32N 57°38' E 008°40'1413.1
2016-Aug-17 18:29N 57°33' E 008°17'1212.8
2016-Aug-17 17:33N 57°29' E 007°56'1412.4
2016-Aug-17 16:24N 57°23' E 007°32'1112.8
2016-Aug-17 15:33N 57°18' E 007°14'1313.1
2016-Aug-17 14:34N 57°14' E 006°51'1313.0
2016-Aug-17 13:34N 57°10' E 006°28'1312.8
2016-Aug-17 12:33N 57°05' E 006°06'1212.5
2016-Aug-17 11:34N 57°01' E 005°45'1312.6
2016-Aug-17 10:34N 56°56' E 005°23'1312.9
2016-Aug-17 09:33N 56°52' E 005°01'1313.0
2016-Aug-17 08:33N 56°47' E 004°39'15412.6
2016-Aug-16 20:21N 56°14' E 000°07'1012.7
2016-Aug-16 19:33N 56°13' W 000°12'1312.9
2016-Aug-16 18:33N 56°12' W 000°35'1312.8
2016-Aug-16 17:31N 56°11' W 000°59'1212.8
2016-Aug-16 16:33N 56°11' W 001°20'1312.6
2016-Aug-16 15:33N 56°09' W 001°43'1312.6
2016-Aug-16 14:33N 56°08' W 002°06'1212.5
2016-Aug-16 13:34N 56°08' W 002°28'1212.4
2016-Aug-16 12:33N 56°06' W 002°50'1111.4
2016-Aug-16 11:34N 56°03' W 003°09'  

Dump ship's entire track history